Terminal Aerodrome Forecast
Issued by NWS Boston, MA

Home | Current Version | Previous Version | Text Only | Print | Product List | Glossary On
Versions: 1 2 3 4 5 6 7 8 9 10 11 12 13 14 15 16 17 18 19 20 21 22 23 24 25
000
FTUS41 KBOX 291733
TAFBOS
TAF
KBOS 291733Z 2918/3024 26014G22KT P6SM SCT070 BKN250
     FM300100 30012KT P6SM SCT250
     FM301100 01007KT P6SM SCT200
     FM301500 10010KT P6SM BKN080=

USA.gov is the U.S. government's official web portal to all federal, state and local government web resources and services.